地図

経路データ

SID SEASON NUMBER BASIN SUBBASIN NAME ISO_TIME NATURE LAT LON WMO_WIND WMO_PRES WMO_AGENCY TRACK_TYPE DIST2LAND LANDFALL IFLAG USA_AGENCY USA_ATCF_ID USA_LAT USA_LON USA_RECORD USA_STATUS USA_WIND USA_PRES USA_SSHS USA_R34_NE USA_R34_SE USA_R34_SW USA_R34_NW USA_R50_NE USA_R50_SE USA_R50_SW USA_R50_NW USA_R64_NE USA_R64_SE USA_R64_SW USA_R64_NW USA_POCI USA_ROCI USA_RMW USA_EYE TOKYO_LAT TOKYO_LON TOKYO_GRADE TOKYO_WIND TOKYO_PRES TOKYO_R50_DIR TOKYO_R50_LONG TOKYO_R50_SHORT TOKYO_R30_DIR TOKYO_R30_LONG TOKYO_R30_SHORT TOKYO_LAND CMA_LAT CMA_LON CMA_CAT CMA_WIND CMA_PRES HKO_LAT HKO_LON HKO_CAT HKO_WIND HKO_PRES NEWDELHI_LAT NEWDELHI_LON NEWDELHI_GRADE NEWDELHI_WIND NEWDELHI_PRES NEWDELHI_CI NEWDELHI_DP NEWDELHI_POCI REUNION_LAT REUNION_LON REUNION_TYPE REUNION_WIND REUNION_PRES REUNION_TNUM REUNION_CI REUNION_RMW REUNION_R34_NE REUNION_R34_SE REUNION_R34_SW REUNION_R34_NW REUNION_R50_NE REUNION_R50_SE REUNION_R50_SW REUNION_R50_NW REUNION_R64_NE REUNION_R64_SE REUNION_R64_SW REUNION_R64_NW BOM_LAT BOM_LON BOM_TYPE BOM_WIND BOM_PRES BOM_TNUM BOM_CI BOM_RMW BOM_R34_NE BOM_R34_SE BOM_R34_SW BOM_R34_NW BOM_R50_NE BOM_R50_SE BOM_R50_SW BOM_R50_NW BOM_R64_NE BOM_R64_SE BOM_R64_SW BOM_R64_NW BOM_ROCI BOM_POCI BOM_EYE BOM_POS_METHOD BOM_PRES_METHOD NADI_LAT NADI_LON NADI_CAT NADI_WIND NADI_PRES WELLINGTON_LAT WELLINGTON_LON WELLINGTON_WIND WELLINGTON_PRES DS824_LAT DS824_LON DS824_STAGE DS824_WIND DS824_PRES TD9636_LAT TD9636_LON TD9636_STAGE TD9636_WIND TD9636_PRES TD9635_LAT TD9635_LON TD9635_WIND TD9635_PRES TD9635_ROCI NEUMANN_LAT NEUMANN_LON NEUMANN_CLASS NEUMANN_WIND NEUMANN_PRES MLC_LAT MLC_LON MLC_CLASS MLC_WIND MLC_PRES USA_GUST BOM_GUST BOM_GUST_PER REUNION_GUST REUNION_GUST_PER USA_SEAHGT USA_SEARAD_NE USA_SEARAD_SE USA_SEARAD_SW USA_SEARAD_NW STORM_SPEED STORM_DIR
1989275N12317 1989 109 NA NA NOT_NAMED 1989-10-02 00:00:00 TS 11.9000 -43.0000 25 hurdat_atl main 1248 1163 O_____________ hurdat_atl AL131989 11.9000 -43.0000 TD 25 -1 22 271
1989275N12317 1989 109 NA NA NOT_NAMED 1989-10-02 03:00:00 TS 11.9161 -44.1126 main 1163 1099 P_____________ AL131989 11.9161 -44.1126 TD 25 -1 21 273
1989275N12317 1989 109 NA NA NOT_NAMED 1989-10-02 06:00:00 TS 12.0000 -45.1000 25 hurdat_atl main 1099 1069 O_____________ hurdat_atl AL131989 12.0000 -45.1000 TD 25 -1 18 279
1989275N12317 1989 109 NA NA NOT_NAMED 1989-10-02 09:00:00 TS 12.2045 -45.8749 main 1066 1055 P_____________ AL131989 12.2045 -45.8749 TD 25 -1 15 290
1989275N12317 1989 109 NA NA NOT_NAMED 1989-10-02 12:00:00 TS 12.5000 -46.5000 25 hurdat_atl main 1057 1043 O_____________ hurdat_atl AL131989 12.5000 -46.5000 TD 25 -1 13 298
1989275N12317 1989 109 NA NA NOT_NAMED 1989-10-02 15:00:00 TS 12.8274 -47.0951 main 1043 1040 P_____________ AL131989 12.8274 -47.0951 TD 25 -1 13 303
1989275N12317 1989 109 NA NA NOT_NAMED 1989-10-02 18:00:00 TS 13.2000 -47.6000 25 hurdat_atl main 1050 1045 O_____________ hurdat_atl AL131989 13.2000 -47.6000 TD 25 -1 12 310
1989275N12317 1989 109 NA NA NOT_NAMED 1989-10-02 21:00:00 TS 13.5849 -48.0302 main 1067 1062 P_____________ AL131989 13.5849 -48.0302 TD 27 -1 11 316
1989275N12317 1989 109 NA NA NOT_NAMED 1989-10-03 00:00:00 TS 14.0000 -48.4000 30 hurdat_atl main 1087 1087 O_____________ hurdat_atl AL131989 14.0000 -48.4000 TD 30 -1 11 320
1989275N12317 1989 109 NA NA NOT_NAMED 1989-10-03 03:00:00 TS 14.4274 -48.7503 main 1109 1109 P_____________ AL131989 14.4274 -48.7503 TD 30 -1 11 323
1989275N12317 1989 109 NA NA NOT_NAMED 1989-10-03 06:00:00 TS 14.9000 -49.1000 30 hurdat_atl main 1148 1148 O_____________ hurdat_atl AL131989 14.9000 -49.1000 TD 30 -1 13 325
1989275N12317 1989 109 NA NA NOT_NAMED 1989-10-03 09:00:00 TS 15.4425 -49.5000 main 1181 1181 P_____________ AL131989 15.4425 -49.5000 TD 30 -1 14 325
1989275N12317 1989 109 NA NA NOT_NAMED 1989-10-03 12:00:00 TS 16.0000 -49.9000 30 hurdat_atl main 1224 1224 O_____________ hurdat_atl AL131989 16.0000 -49.9000 TD 30 -1 13 325
1989275N12317 1989 109 NA NA NOT_NAMED 1989-10-03 15:00:00 TS 16.5150 -50.2875 main 1260 1260 P_____________ AL131989 16.5150 -50.2875 TD 30 -1 12 326
1989275N12317 1989 109 NA NA NOT_NAMED 1989-10-03 18:00:00 TS 17.0000 -50.6000 30 hurdat_atl main 1303 1303 O_____________ hurdat_atl AL131989 17.0000 -50.6000 TD 30 -1 11 333
1989275N12317 1989 109 NA NA NOT_NAMED 1989-10-03 21:00:00 TS 17.4649 -50.7952 main 1337 1337 P_____________ AL131989 17.4649 -50.7952 TD 30 -1 10 342
1989275N12317 1989 109 NA NA NOT_NAMED 1989-10-04 00:00:00 TS 17.9000 -50.9000 30 hurdat_atl main 1353 1353 O_____________ hurdat_atl AL131989 17.9000 -50.9000 TD 30 -1 9 348
1989275N12317 1989 109 NA NA NOT_NAMED 1989-10-04 03:00:00 TS 18.3075 -50.9800 main 1371 1371 P_____________ AL131989 18.3075 -50.9800 TD 30 -1 8 353
1989275N12317 1989 109 NA NA NOT_NAMED 1989-10-04 06:00:00 TS 18.7000 -51.0000 30 hurdat_atl main 1399 1399 O_____________ hurdat_atl AL131989 18.7000 -51.0000 TD 30 -1 8 2
1989275N12317 1989 109 NA NA NOT_NAMED 1989-10-04 09:00:00 TS 19.0925 -50.9651 main 1427 1427 P_____________ AL131989 19.0925 -50.9651 TD 30 -1 8 7
1989275N12317 1989 109 NA NA NOT_NAMED 1989-10-04 12:00:00 TS 19.5000 -50.9000 30 hurdat_atl main 1464 1464 O_____________ hurdat_atl AL131989 19.5000 -50.9000 TD 30 -1 9 5
1989275N12317 1989 109 NA NA NOT_NAMED 1989-10-04 15:00:00 TS 19.9424 -50.8797 main 1493 1493 P_____________ AL131989 19.9424 -50.8797 TD 30 -1 9 6
1989275N12317 1989 109 NA NA NOT_NAMED 1989-10-04 18:00:00 TS 20.4000 -50.8000 30 hurdat_atl main 1539 1539 O_____________ hurdat_atl AL131989 20.4000 -50.8000 TD 30 -1 10 16
1989275N12317 1989 109 NA NA NOT_NAMED 1989-10-04 21:00:00 TS 20.8575 -50.5950 main 1593 1593 P_____________ AL131989 20.8575 -50.5950 TD 30 -1 10 27
1989275N12317 1989 109 NA NA NOT_NAMED 1989-10-05 00:00:00 TS 21.3000 -50.3000 30 hurdat_atl main 1631 1631 O_____________ hurdat_atl AL131989 21.3000 -50.3000 TD 30 -1 11 35
1989275N12317 1989 109 NA NA NOT_NAMED 1989-10-05 03:00:00 TS 21.7527 -49.9279 main 1681 1681 P_____________ AL131989 21.7527 -49.9279 TD 30 -1 10 39
1989275N12317 1989 109 NA NA NOT_NAMED 1989-10-05 06:00:00 TS 22.1000 -49.6000 30 hurdat_atl main 1718 1718 O_____________ hurdat_atl AL131989 22.1000 -49.6000 TD 30 -1 7 42
1989275N12317 1989 109 NA NA NOT_NAMED 1989-10-05 09:00:00 TS 22.2574 -49.4447 main 1743 1743 P_____________ AL131989 22.2574 -49.4447 TD 27 -1 3 43
1989275N12317 1989 109 NA NA NOT_NAMED 1989-10-05 12:00:00 TS 22.3000 -49.4000 25 hurdat_atl main 1743 O_____________ hurdat_atl AL131989 22.3000 -49.4000 TD 25 -1 1 40

IBTrACS Databaseについて

本データベースは、米国NOAAが公開する1842年以降の世界の熱帯低気圧のベストトラックデータアーカイブInternational Best Track Archive for Climate Stewardship (IBTrACS)を、ウェブで閲覧しやすい形式に変換したものです。

最終更新日:2021-12-06